Chemtrans Mabuhay — A8XX9 — position and weather

sailwx.info

Track history (hours):
 
Tides and Currents Weather Stations Pressure Air Temp Water Temp Dewpoint Dewpoint Depression Visibility Wind Speed Wind Dir Waves Ship Positions

Chemtrans Mabuhay

Last reported at 2015-May-21 12:29 UTC. Time now 2015-May-23 16:29 UTC.
Position N 29°22' W 094°48'.

Length 140 m; draft 7.5 m.

Type: Ship. MMSI: 636092180.

Date/timePositionNaut miles runAvg speedWind from/ knotsBaromVisibWave heightAir tempDewpointWater temp
2015-May-21 12:29N 29°22' W 094°48'1010.9
2015-May-21 11:33N 29°31' W 094°53'1211.6
2015-May-21 10:34N 29°41' W 094°59'7 7.1
2015-May-21 09:33N 29°44' W 095°07'1 0.0
2015-May-20 08:18N 29°44' W 095°08'2 3.2
2015-May-20 07:33N 29°46' W 095°05'9 8.5
2015-May-20 06:33N 29°40' W 094°58'1211.7
2015-May-20 05:33N 29°29' W 094°52'1110.0
2015-May-20 04:30N 29°21' W 094°45'  
2015-May-16 19:33N 29°28' W 094°51'1212.0
2015-May-16 18:33N 29°38' W 094°58'8 7.8
2015-May-16 17:33N 29°44' W 095°03'2 0.1
2015-May-15 23:25N 29°45' W 095°06'0 0.0
2015-May-15 03:33N 29°45' W 095°06'4 4.4
2015-May-15 02:33N 29°43' W 095°01'1110.7
2015-May-15 01:33N 29°34' W 094°55'1211.6
2015-May-15 00:33N 29°24' W 094°49'5 0.2
2015-May-14 00:32N 29°21' W 094°45'8 0.6
2015-May-13 10:33N 29°22' W 094°54'7 6.6
2015-May-13 09:33N 29°21' W 094°47'2 1.2
2015-May-13 08:13N 29°21' W 094°45'0 0.0
2015-May-13 06:32N 29°21' W 094°45'4 4.3
2015-May-13 05:33N 29°24' W 094°49'1212.0
2015-May-13 04:33N 29°34' W 094°55'1111.1
2015-May-13 03:34N 29°44' W 095°02'7 6.9
2015-May-13 02:33N 29°45' W 095°10'6 6.1
2015-May-13 01:33N 29°44' W 095°16'1 0.1
2015-May-12 06:33N 29°45' W 095°17'3 2.6
2015-May-12 05:33N 29°43' W 095°15'6 5.7
2015-May-12 04:33N 29°44' W 095°08'6 6.2
2015-May-12 03:33N 29°43' W 095°01'1010.4
2015-May-12 02:33N 29°34' W 094°55'1211.5
2015-May-12 01:33N 29°24' W 094°49'1410.8
2015-May-12 00:18N 29°17' W 094°35'9 9.0
2015-May-11 23:16N 29°12' W 094°27'  
Track history (hours):
 
Tides and Currents Weather Stations Pressure Air Temp Water Temp Dewpoint Dewpoint Depression Visibility Wind Speed Wind Dir Waves Ship Positions

Chemtrans Mabuhay

Last reported at 2015-May-21 12:29 UTC. Time now 2015-May-23 16:29 UTC.
Position N 29°22' W 094°48'.

Length 140 m; draft 7.5 m.

Type: Ship. MMSI: 636092180.

Date/timePositionNaut miles runAvg speedWind from/ knotsBaromVisibWave heightAir tempDewpointWater temp
2015-May-21 12:29N 29°22' W 094°48'1010.9
2015-May-21 11:33N 29°31' W 094°53'1211.6
2015-May-21 10:34N 29°41' W 094°59'7 7.1
2015-May-21 09:33N 29°44' W 095°07'1 0.0
2015-May-20 08:18N 29°44' W 095°08'2 3.2
2015-May-20 07:33N 29°46' W 095°05'9 8.5
2015-May-20 06:33N 29°40' W 094°58'1211.7
2015-May-20 05:33N 29°29' W 094°52'1110.0
2015-May-20 04:30N 29°21' W 094°45'  
2015-May-16 19:33N 29°28' W 094°51'1212.0
2015-May-16 18:33N 29°38' W 094°58'8 7.8
2015-May-16 17:33N 29°44' W 095°03'2 0.1
2015-May-15 23:25N 29°45' W 095°06'0 0.0
2015-May-15 03:33N 29°45' W 095°06'4 4.4
2015-May-15 02:33N 29°43' W 095°01'1110.7
2015-May-15 01:33N 29°34' W 094°55'1211.6
2015-May-15 00:33N 29°24' W 094°49'5 0.2
2015-May-14 00:32N 29°21' W 094°45'8 0.6
2015-May-13 10:33N 29°22' W 094°54'7 6.6
2015-May-13 09:33N 29°21' W 094°47'2 1.2
2015-May-13 08:13N 29°21' W 094°45'0 0.0
2015-May-13 06:32N 29°21' W 094°45'4 4.3
2015-May-13 05:33N 29°24' W 094°49'1212.0
2015-May-13 04:33N 29°34' W 094°55'1111.1
2015-May-13 03:34N 29°44' W 095°02'7 6.9
2015-May-13 02:33N 29°45' W 095°10'6 6.1
2015-May-13 01:33N 29°44' W 095°16'1 0.1
2015-May-12 06:33N 29°45' W 095°17'3 2.6
2015-May-12 05:33N 29°43' W 095°15'6 5.7
2015-May-12 04:33N 29°44' W 095°08'6 6.2
2015-May-12 03:33N 29°43' W 095°01'1010.4
2015-May-12 02:33N 29°34' W 094°55'1211.5
2015-May-12 01:33N 29°24' W 094°49'1410.8
2015-May-12 00:18N 29°17' W 094°35'9 9.0
2015-May-11 23:16N 29°12' W 094°27'  

Dump ship's entire track history